Arcola, Texas
Current Conditions -  °F | °C
As of 2:55 AM on Thursday 23 Oct 2014 (Local Time) from KAXH Reporting Station
Clear Clear  
Wind Chill: 54°   Ceiling: Unl
Heat Index: 54°   Visibility: 10mi
Dew Point: 54°   Wind: 0mph
Humidity: 99%   Direction: NA
Pressure: 30.09"   Gusts: NA
Location:  29.4042°N, 95.4477°W
Report Text: KAXH 230755Z AUTO 00000KT 10SM CLR 12/12 A3009 RMK AO2 T01210120
Loading
Personal Weather Stations






























Interactive Weather Map
Tropical Storm Tracking
New forecast layout! Learn more

10-Day Weather Forecast

Advertisements
Track Severe Weather on mobile